Time;durP1;ratioP1;P1;durP2;ratioP2;P2;SDS_P1;SDS_P2;PMS_P1;PMS_P2;Temp;Humidity;BMP_temperature;BMP_pressure;BME280_temperature;BME280_humidity;BME280_pressure;Samples;Min_cycle;Max_cycle;Signal;HPM_P1;HPM_P2
2022/03/04 00:02:03;;;;;;;22.98;11.77;;;1.90;99.90;;;;;;5129249;27;20047;-74
2022/03/04 00:04:29;;;;;;;21.67;11.90;;;2.30;99.90;;;;;;5123549;27;20034;-74
2022/03/04 00:06:55;;;;;;;19.60;11.27;;;2.30;99.90;;;;;;5149372;27;20042;-75
2022/03/04 00:09:21;;;;;;;22.65;11.25;;;3.20;99.90;;;;;;5131396;27;20399;-74
2022/03/04 00:11:48;;;;;;;23.65;12.48;;;2.30;99.90;;;;;;5112317;27;20083;-74
2022/03/04 00:14:14;;;;;;;23.08;12.38;;;2.30;99.90;;;;;;5130564;27;20058;-74
2022/03/04 00:16:40;;;;;;;21.80;11.43;;;2.30;99.90;;;;;;5113477;27;20402;-74
2022/03/04 00:19:09;;;;;;;22.92;11.82;;;2.20;99.90;;;;;;5114108;27;20039;-74
2022/03/04 00:21:37;;;;;;;23.40;12.60;;;2.20;99.90;;;;;;5133504;27;20386;-74
2022/03/04 00:24:05;;;;;;;22.13;12.20;;;2.20;99.90;;;;;;5135011;27;20100;-74
2022/03/04 00:26:31;;;;;;;19.63;11.45;;;2.20;99.90;;;;;;5134457;27;20402;-74
2022/03/04 00:28:57;;;;;;;21.20;11.50;;;2.20;99.90;;;;;;5134678;27;20042;-74
2022/03/04 00:31:24;;;;;;;19.75;11.35;;;2.10;99.90;;;;;;5135534;27;20050;-74
2022/03/04 00:33:50;;;;;;;24.77;12.38;;;2.20;99.90;;;;;;5150692;27;20126;-74
2022/03/04 00:36:16;;;;;;;22.17;11.93;;;3.40;99.90;;;;;;5153507;27;20065;-74
2022/03/04 00:38:42;;;;;;;21.50;11.73;;;3.20;99.90;;;;;;5133934;27;20043;-74
2022/03/04 00:41:07;;;;;;;21.30;11.30;;;3.20;99.90;;;;;;5134444;27;20399;-74
2022/03/04 00:43:33;;;;;;;20.00;11.13;;;1.50;99.90;;;;;;5134178;27;20063;-74
2022/03/04 00:45:59;;;;;;;21.60;11.20;;;3.00;99.90;;;;;;5134338;27;20042;-73
2022/03/04 00:48:25;;;;;;;21.95;11.93;;;2.10;99.90;;;;;;5133060;27;20047;-74
2022/03/04 00:50:51;;;;;;;25.30;12.55;;;2.10;99.90;;;;;;5133871;27;20337;-74
2022/03/04 00:53:18;;;;;;;21.50;11.85;;;2.00;99.90;;;;;;5134463;27;20068;-74
2022/03/04 00:55:44;;;;;;;22.67;11.77;;;2.70;99.90;;;;;;5134283;27;20423;-74
2022/03/04 00:58:09;;;;;;;24.80;13.00;;;3.00;99.90;;;;;;5130824;27;20092;-74
2022/03/04 01:00:38;;;;;;;22.77;11.85;;;1.90;99.90;;;;;;5130391;27;20682;-74
2022/03/04 01:03:04;;;;;;;23.30;11.98;;;2.00;99.90;;;;;;5113046;27;20054;-74
2022/03/04 01:05:30;;;;;;;21.70;11.90;;;3.00;99.90;;;;;;5133483;27;20040;-74
2022/03/04 01:07:56;;;;;;;22.65;12.93;;;2.00;99.90;;;;;;5111967;27;20478;-74
2022/03/04 01:10:22;;;;;;;21.77;12.63;;;1.90;99.90;;;;;;5131444;27;20039;-74
2022/03/04 01:12:48;;;;;;;24.33;12.40;;;3.50;99.90;;;;;;5130118;27;20407;-74
2022/03/04 01:15:14;;;;;;;23.23;12.38;;;1.90;99.90;;;;;;5130390;27;20043;-74
2022/03/04 01:17:40;;;;;;;24.63;12.43;;;1.90;99.90;;;;;;5128786;27;20356;-74
2022/03/04 01:20:06;;;;;;;21.95;12.65;;;1.80;99.90;;;;;;5128084;27;20043;-74
2022/03/04 01:22:32;;;;;;;22.95;12.85;;;1.80;99.90;;;;;;5122076;27;20122;-74
2022/03/04 01:24:58;;;;;;;27.15;13.23;;;1.80;99.90;;;;;;5128059;27;20043;-74
2022/03/04 01:27:24;;;;;;;24.80;12.55;;;1.80;99.90;;;;;;5110833;28;20518;-74
2022/03/04 01:29:50;;;;;;;22.60;12.85;;;1.80;99.90;;;;;;5128845;27;20126;-74
2022/03/04 01:32:16;;;;;;;23.30;12.85;;;1.80;99.90;;;;;;5131112;27;20041;-74
2022/03/04 01:34:42;;;;;;;22.27;12.50;;;1.80;99.90;;;;;;5129229;27;20109;-74
2022/03/04 01:37:09;;;;;;;22.63;12.90;;;1.80;99.90;;;;;;5130364;27;20050;-74
2022/03/04 01:39:35;;;;;;;24.55;13.68;;;1.70;99.90;;;;;;5131324;27;20027;-74
2022/03/04 01:42:01;;;;;;;24.38;12.75;;;1.80;99.90;;;;;;5131161;27;20130;-74
2022/03/04 01:44:27;;;;;;;23.38;13.38;;;1.70;99.90;;;;;;5129549;27;20134;-74
2022/03/04 01:46:53;;;;;;;28.88;14.30;;;1.70;99.90;;;;;;5129733;27;20572;-74
2022/03/04 01:49:19;;;;;;;28.92;14.07;;;1.50;99.90;;;;;;5112323;27;20050;-74
2022/03/04 01:51:45;;;;;;;26.52;13.23;;;1.50;99.90;;;;;;5128339;27;20046;-74
2022/03/04 01:54:10;;;;;;;26.20;14.00;;;1.50;99.90;;;;;;5124632;27;20398;-74
2022/03/04 01:56:36;;;;;;;24.20;12.93;;;1.50;99.90;;;;;;5135094;27;20066;-74
2022/03/04 01:59:03;;;;;;;25.10;13.43;;;1.40;99.90;;;;;;5132713;27;20039;-74
2022/03/04 02:01:28;;;;;;;24.23;13.52;;;1.40;99.90;;;;;;5151976;27;20390;-73
2022/03/04 02:03:54;;;;;;;27.27;13.23;;;1.40;99.90;;;;;;5131230;27;20045;-74
2022/03/04 02:06:20;;;;;;;26.45;14.07;;;1.40;99.90;;;;;;5115548;27;20046;-74
2022/03/04 02:08:46;;;;;;;24.70;13.05;;;1.30;99.90;;;;;;5150601;27;20038;-74
2022/03/04 02:11:12;;;;;;;25.05;12.90;;;1.30;99.90;;;;;;5115568;27;20566;-74
2022/03/04 02:13:38;;;;;;;27.08;14.05;;;1.30;99.90;;;;;;5104828;27;20083;-74
2022/03/04 02:16:17;;;;;;;26.10;14.45;;;1.30;99.90;;;;;;5129666;27;20158;-74
2022/03/04 02:18:43;;;;;;;27.05;13.85;;;1.20;99.90;;;;;;5130572;27;20458;-74
2022/03/04 02:21:13;;;;;;;24.77;13.75;;;1.10;99.90;;;;;;5152517;27;20121;-74
2022/03/04 02:23:39;;;;;;;25.48;13.35;;;1.10;99.90;;;;;;5135272;27;20047;-74
2022/03/04 02:26:06;;;;;;;27.77;13.88;;;1.10;99.90;;;;;;5135020;27;20039;-74
2022/03/04 02:28:32;;;;;;;28.15;13.70;;;1.10;99.90;;;;;;5151028;27;20144;-74
2022/03/04 02:30:57;;;;;;;29.02;13.95;;;1.00;99.90;;;;;;5132923;27;20046;-74
2022/03/04 02:33:23;;;;;;;24.92;13.82;;;1.00;99.90;;;;;;5133259;27;20050;-74
2022/03/04 02:35:49;;;;;;;25.95;13.50;;;0.90;99.90;;;;;;5150321;27;20073;-75
2022/03/04 02:38:15;;;;;;;27.80;14.25;;;0.90;99.90;;;;;;5151385;27;20394;-74
2022/03/04 02:40:41;;;;;;;29.27;14.68;;;0.90;99.90;;;;;;5131093;27;20031;-75
2022/03/04 02:43:06;;;;;;;26.23;13.68;;;0.90;99.90;;;;;;5132399;27;20048;-74
2022/03/04 02:45:33;;;;;;;27.52;14.57;;;0.80;99.90;;;;;;5132369;27;20047;-74
2022/03/04 02:47:58;;;;;;;29.23;13.82;;;0.80;99.90;;;;;;5130163;27;20035;-74
2022/03/04 02:50:24;;;;;;;27.30;14.25;;;0.80;99.90;;;;;;5132783;27;20133;-74
2022/03/04 02:52:51;;;;;;;24.15;13.50;;;0.90;99.90;;;;;;5123750;27;20039;-74
2022/03/04 02:55:17;;;;;;;28.00;14.85;;;0.90;99.90;;;;;;5129192;27;20050;-74
2022/03/04 02:57:45;;;;;;;28.23;14.50;;;0.80;99.90;;;;;;5133352;27;20131;-74
2022/03/04 03:00:13;;;;;;;25.88;13.23;;;0.70;99.90;;;;;;5132993;27;20120;-74
2022/03/04 03:02:39;;;;;;;27.10;13.90;;;0.70;99.90;;;;;;5115717;27;20122;-74
2022/03/04 03:05:05;;;;;;;27.40;14.18;;;0.70;99.90;;;;;;5134058;27;20490;-74
2022/03/04 03:07:31;;;;;;;26.95;13.40;;;0.80;99.90;;;;;;5113527;27;20046;-74
2022/03/04 03:09:57;;;;;;;25.90;13.98;;;2.60;99.90;;;;;;5150719;27;20050;-74
2022/03/04 03:12:23;;;;;;;27.48;14.55;;;2.20;99.90;;;;;;5133627;27;20173;-74
2022/03/04 03:14:48;;;;;;;27.67;14.32;;;0.60;99.90;;;;;;5150188;27;20043;-74
2022/03/04 03:17:14;;;;;;;29.70;13.90;;;2.00;99.90;;;;;;5148960;27;20106;-74
2022/03/04 03:19:40;;;;;;;27.70;14.48;;;0.60;99.90;;;;;;5114097;27;20056;-74
2022/03/04 03:22:06;;;;;;;25.27;13.77;;;0.60;99.90;;;;;;5148980;27;20108;-74
2022/03/04 03:24:32;;;;;;;26.88;13.68;;;1.70;99.90;;;;;;5149787;27;20054;-74
2022/03/04 03:26:58;;;;;;;25.08;13.82;;;1.30;99.90;;;;;;5114990;27;20043;-74
2022/03/04 03:29:23;;;;;;;25.25;13.48;;;0.50;99.90;;;;;;5149341;27;20055;-74
2022/03/04 03:31:49;;;;;;;27.25;14.32;;;0.50;99.90;;;;;;5130706;27;20042;-74
2022/03/04 03:34:15;;;;;;;26.55;14.02;;;0.50;99.90;;;;;;5131046;27;20051;-74
2022/03/04 03:36:41;;;;;;;28.20;14.23;;;0.40;99.90;;;;;;5148518;27;20080;-74
2022/03/04 03:39:09;;;;;;;29.83;14.13;;;1.60;99.90;;;;;;5131829;27;20430;-74
2022/03/04 03:41:36;;;;;;;32.22;14.80;;;0.30;99.90;;;;;;5149083;27;20042;-74
2022/03/04 03:44:02;;;;;;;25.40;13.32;;;0.30;99.90;;;;;;5131064;27;20187;-74
2022/03/04 03:46:28;;;;;;;27.50;14.32;;;0.30;99.90;;;;;;5131550;27;20415;-74
2022/03/04 03:48:54;;;;;;;26.65;14.05;;;1.70;99.90;;;;;;5112926;27;20035;-74
2022/03/04 03:51:20;;;;;;;25.00;12.73;;;0.40;99.90;;;;;;5130576;27;20050;-75
2022/03/04 03:53:45;;;;;;;26.98;13.70;;;0.40;99.90;;;;;;5130093;27;20045;-74
2022/03/04 03:56:11;;;;;;;26.38;13.52;;;0.30;99.90;;;;;;5130854;27;20085;-74
2022/03/04 03:58:37;;;;;;;29.33;14.23;;;0.30;99.90;;;;;;5128960;27;20134;-74
2022/03/04 04:01:03;;;;;;;25.10;14.32;;;0.30;99.90;;;;;;5131058;27;20046;-74
2022/03/04 04:03:29;;;;;;;27.23;14.52;;;0.10;99.90;;;;;;5131563;27;20038;-73
2022/03/04 04:05:55;;;;;;;25.35;13.30;;;0.20;99.90;;;;;;5128964;27;20134;-74
2022/03/04 04:08:21;;;;;;;29.48;15.45;;;0.20;99.90;;;;;;5131392;27;20050;-74
2022/03/04 04:10:46;;;;;;;26.98;14.50;;;0.10;99.90;;;;;;5129764;27;20451;-74
2022/03/04 04:13:12;;;;;;;28.52;13.98;;;0.20;99.90;;;;;;5132997;27;20103;-74
2022/03/04 04:15:38;;;;;;;26.15;14.40;;;1.70;99.90;;;;;;5130939;27;20070;-74
2022/03/04 04:18:04;;;;;;;29.38;15.07;;;0.10;99.90;;;;;;5128882;27;20089;-74
2022/03/04 04:20:30;;;;;;;27.27;14.32;;;0.10;99.90;;;;;;5131298;27;20452;-75
2022/03/04 04:22:56;;;;;;;29.95;14.63;;;0.10;99.90;;;;;;5148782;27;20099;-74
2022/03/04 04:25:22;;;;;;;29.98;14.50;;;0.10;99.90;;;;;;5113858;27;20483;-74
2022/03/04 04:27:48;;;;;;;27.65;14.98;;;0.10;99.90;;;;;;5129715;27;20195;-75
2022/03/04 04:30:14;;;;;;;30.85;15.95;;;0.10;99.90;;;;;;5113928;27;20070;-74
2022/03/04 04:32:40;;;;;;;31.20;15.98;;;0.00;99.90;;;;;;5092648;27;20768;-74
2022/03/04 04:35:06;;;;;;;36.97;16.60;;;0.00;99.90;;;;;;5134655;27;20435;-74
2022/03/04 04:37:31;;;;;;;35.63;16.50;;;0.00;99.90;;;;;;5131118;27;20133;-74
2022/03/04 04:39:57;;;;;;;32.80;15.75;;;0.00;99.90;;;;;;5130767;27;20224;-74
2022/03/04 04:42:23;;;;;;;32.05;15.38;;;0.00;99.90;;;;;;5120977;28;20125;-74
2022/03/04 04:44:49;;;;;;;29.88;15.52;;;-0.10;99.90;;;;;;5146817;27;20069;-74
2022/03/04 04:47:18;;;;;;;35.97;15.80;;;0.00;99.90;;;;;;5129362;27;20039;-74
2022/03/04 04:49:44;;;;;;;31.33;16.65;;;0.00;99.90;;;;;;5147862;27;20083;-74
2022/03/04 04:52:10;;;;;;;37.75;17.15;;;0.10;99.90;;;;;;5129739;27;20127;-73
2022/03/04 04:54:36;;;;;;;31.30;15.98;;;0.00;99.90;;;;;;5129928;27;20130;-73
2022/03/04 04:57:03;;;;;;;32.22;16.92;;;0.10;99.90;;;;;;5148830;27;20452;-73
2022/03/04 04:59:28;;;;;;;31.60;15.95;;;0.10;99.90;;;;;;5113201;27;20118;-73
2022/03/04 05:01:54;;;;;;;34.38;16.70;;;0.10;99.90;;;;;;5129598;27;20418;-73
2022/03/04 05:04:19;;;;;;;30.85;16.30;;;0.10;99.90;;;;;;5130353;27;20054;-76
2022/03/04 05:06:45;;;;;;;34.72;16.60;;;0.00;99.90;;;;;;5131045;27;20043;-74
2022/03/04 05:09:11;;;;;;;36.08;16.95;;;0.00;99.90;;;;;;5134083;27;20051;-74
2022/03/04 05:11:36;;;;;;;30.05;16.40;;;0.80;99.90;;;;;;5133827;27;20133;-75
2022/03/04 05:14:02;;;;;;;34.40;15.95;;;-0.10;99.90;;;;;;5133469;27;20558;-74
2022/03/04 05:16:31;;;;;;;30.88;15.77;;;0.00;99.90;;;;;;5133992;27;20500;-74
2022/03/04 05:18:56;;;;;;;31.98;16.60;;;-0.10;99.90;;;;;;5151914;27;20042;-74
2022/03/04 05:21:22;;;;;;;37.92;17.55;;;-0.10;99.90;;;;;;5118385;27;20043;-74
2022/03/04 05:23:59;;;;;;;37.22;16.98;;;-0.10;99.90;;;;;;5122783;27;20129;-74
2022/03/04 05:26:31;;;;;;;33.75;17.58;;;-0.10;99.90;;;;;;5152424;27;20038;-74
2022/03/04 05:28:58;;;;;;;33.45;16.45;;;0.00;99.90;;;;;;5133662;27;20452;-74
2022/03/04 05:31:24;;;;;;;32.97;17.00;;;0.00;99.90;;;;;;5116252;27;20046;-74
2022/03/04 05:33:51;;;;;;;34.35;17.48;;;-0.10;99.90;;;;;;5150892;27;20046;-75
2022/03/04 05:36:17;;;;;;;32.22;16.52;;;0.00;99.90;;;;;;5133423;27;20062;-75
2022/03/04 05:38:43;;;;;;;29.88;15.65;;;0.00;99.90;;;;;;5132442;27;20047;-74
2022/03/04 05:41:08;;;;;;;32.72;15.68;;;0.00;99.90;;;;;;5133504;27;20046;-75
2022/03/04 05:43:35;;;;;;;31.75;15.50;;;0.10;99.90;;;;;;5132134;27;20034;-75
2022/03/04 05:46:01;;;;;;;33.78;16.92;;;0.00;99.90;;;;;;5151795;27;20050;-74
2022/03/04 05:48:27;;;;;;;31.23;15.48;;;0.00;99.90;;;;;;5149692;27;20049;-74
2022/03/04 05:50:52;;;;;;;29.90;16.65;;;0.20;99.90;;;;;;5114957;27;20125;-74
2022/03/04 05:53:18;;;;;;;31.67;16.67;;;0.10;99.90;;;;;;5133441;27;20524;-74
2022/03/04 05:55:44;;;;;;;33.80;17.30;;;0.00;99.90;;;;;;5132173;27;20107;-74
2022/03/04 05:58:10;;;;;;;33.92;16.50;;;0.00;99.90;;;;;;5132077;27;20051;-74
2022/03/04 06:00:36;;;;;;;33.72;16.85;;;1.30;99.90;;;;;;5151527;27;20059;-74
2022/03/04 06:03:02;;;;;;;31.95;16.10;;;1.30;99.90;;;;;;5131397;27;20428;-74
2022/03/04 06:05:28;;;;;;;33.85;15.73;;;1.70;99.90;;;;;;5134121;27;20050;-75
2022/03/04 06:07:54;;;;;;;31.25;16.10;;;0.30;99.90;;;;;;5133360;27;20447;-74
2022/03/04 06:10:20;;;;;;;30.90;16.23;;;1.60;99.90;;;;;;5112264;27;20046;-75
2022/03/04 06:12:45;;;;;;;34.95;17.48;;;-0.30;99.90;;;;;;5120728;27;20083;-74
2022/03/04 06:15:11;;;;;;;33.55;16.73;;;2.00;99.90;;;;;;5133744;27;20404;-74
2022/03/04 06:17:37;;;;;;;31.20;16.65;;;-0.80;99.90;;;;;;5126913;27;20038;-73
2022/03/04 06:20:04;;;;;;;30.92;16.75;;;0.90;99.90;;;;;;5111697;27;20494;-74
2022/03/04 06:22:29;;;;;;;34.63;17.90;;;0.20;99.90;;;;;;5111184;27;20126;-74
2022/03/04 06:24:55;;;;;;;32.22;16.73;;;2.10;99.90;;;;;;5128082;27;20175;-74
2022/03/04 06:27:21;;;;;;;30.75;16.25;;;1.50;99.90;;;;;;5130921;27;20086;-74
2022/03/04 06:29:46;;;;;;;28.92;15.48;;;1.00;99.90;;;;;;5114409;27;20061;-75
2022/03/04 06:32:14;;;;;;;32.95;17.20;;;1.30;99.90;;;;;;5121049;27;20056;-74
2022/03/04 06:34:39;;;;;;;32.58;16.58;;;0.10;99.90;;;;;;5132428;27;20406;-74
2022/03/04 06:37:05;;;;;;;32.85;17.25;;;1.20;99.90;;;;;;5150816;27;20057;-74
2022/03/04 06:39:31;;;;;;;34.67;16.92;;;2.10;99.90;;;;;;5114229;27;20050;-74
2022/03/04 06:41:57;;;;;;;32.00;16.77;;;0.20;99.90;;;;;;5115932;27;20395;-74
2022/03/04 06:44:25;;;;;;;32.30;17.48;;;1.90;99.90;;;;;;5150696;27;20057;-74
2022/03/04 06:46:51;;;;;;;32.42;16.60;;;1.90;99.90;;;;;;5110311;27;20492;-74
2022/03/04 06:49:16;;;;;;;37.83;17.85;;;1.60;99.90;;;;;;5122468;27;20088;-74
2022/03/04 06:51:42;;;;;;;30.92;17.08;;;1.50;99.90;;;;;;5121717;27;20044;-74
2022/03/04 06:54:08;;;;;;;31.02;17.00;;;1.20;99.90;;;;;;5134081;27;20047;-74
2022/03/04 06:56:33;;;;;;;29.92;16.05;;;1.60;99.90;;;;;;5150086;27;20084;-75
2022/03/04 06:58:59;;;;;;;33.72;17.30;;;0.50;99.90;;;;;;5149849;27;20655;-70
2022/03/04 07:01:25;;;;;;;34.85;16.55;;;0.30;99.90;;;;;;5149964;27;20375;-70
2022/03/04 07:03:50;;;;;;;36.55;17.00;;;0.30;99.90;;;;;;5130167;27;20031;-71
2022/03/04 07:06:16;;;;;;;31.73;17.02;;;0.30;99.90;;;;;;5150816;27;20501;-70
2022/03/04 07:08:43;;;;;;;33.47;18.25;;;0.30;99.90;;;;;;5130415;27;20141;-71
2022/03/04 07:11:08;;;;;;;31.17;16.33;;;0.40;99.90;;;;;;5111245;27;20058;-70
2022/03/04 07:13:34;;;;;;;31.92;17.02;;;0.40;99.90;;;;;;5092683;27;20035;-71
2022/03/04 07:16:00;;;;;;;30.02;16.33;;;0.40;99.90;;;;;;5131195;27;20038;-70
2022/03/04 07:18:29;;;;;;;29.55;16.00;;;0.40;99.90;;;;;;5132307;27;20088;-70
2022/03/04 07:20:56;;;;;;;29.90;15.77;;;0.40;99.90;;;;;;5130353;27;20084;-70
2022/03/04 07:23:23;;;;;;;32.00;16.35;;;0.40;99.90;;;;;;5150849;27;20042;-70
2022/03/04 07:25:49;;;;;;;30.10;16.77;;;0.50;99.90;;;;;;5130677;27;20067;-70
2022/03/04 07:28:15;;;;;;;31.55;16.20;;;0.70;99.90;;;;;;5130338;27;20128;-69
2022/03/04 07:30:40;;;;;;;31.42;16.75;;;0.50;99.90;;;;;;5129035;27;20569;-70
2022/03/04 07:33:06;;;;;;;32.15;16.45;;;2.00;99.90;;;;;;5130021;27;20053;-69
2022/03/04 07:35:32;;;;;;;30.50;17.27;;;0.60;99.90;;;;;;5130434;27;20035;-71
2022/03/04 07:37:58;;;;;;;30.70;17.48;;;0.60;99.90;;;;;;5123615;27;20424;-70
2022/03/04 07:40:23;;;;;;;32.70;17.92;;;0.60;99.90;;;;;;5119555;27;20072;-69
2022/03/04 07:42:49;;;;;;;32.17;16.67;;;0.60;99.90;;;;;;5129307;27;20046;-69
2022/03/04 07:45:15;;;;;;;31.52;17.27;;;0.70;99.90;;;;;;5131344;27;20082;-71
2022/03/04 07:47:42;;;;;;;31.73;17.00;;;0.70;99.90;;;;;;5147710;27;20419;-71
2022/03/04 07:50:11;;;;;;;33.10;16.80;;;0.80;99.90;;;;;;5130075;27;20099;-71
2022/03/04 07:52:36;;;;;;;31.55;16.65;;;1.40;99.90;;;;;;5130473;27;20376;-70
2022/03/04 07:55:05;;;;;;;29.17;16.00;;;0.90;99.90;;;;;;5126759;27;20092;-70
2022/03/04 07:57:31;;;;;;;31.30;16.85;;;0.90;99.90;;;;;;5109015;27;20097;-70
2022/03/04 07:59:57;;;;;;;32.10;17.35;;;1.40;99.90;;;;;;5131824;27;20615;-70
2022/03/04 08:02:23;;;;;;;29.20;16.00;;;0.90;99.90;;;;;;5132240;27;20042;-71
2022/03/04 08:04:49;;;;;;;31.52;16.63;;;0.80;99.90;;;;;;5134541;27;20121;-70
2022/03/04 08:07:15;;;;;;;29.48;16.25;;;0.80;99.90;;;;;;5130232;27;20065;-71
2022/03/04 08:09:41;;;;;;;32.47;16.90;;;0.90;99.90;;;;;;5126523;27;20039;-71
2022/03/04 08:12:07;;;;;;;34.42;17.88;;;0.90;99.90;;;;;;5122897;28;20035;-71
2022/03/04 08:14:33;;;;;;;27.80;15.82;;;0.90;99.90;;;;;;5118103;27;20066;-70
2022/03/04 08:16:59;;;;;;;27.25;15.35;;;1.00;99.90;;;;;;5122799;27;20525;-70
2022/03/04 08:19:25;;;;;;;31.05;16.52;;;1.80;99.90;;;;;;5112982;27;20390;-69
2022/03/04 08:21:50;;;;;;;28.45;15.95;;;1.00;99.90;;;;;;5129043;27;20062;-69
2022/03/04 08:24:16;;;;;;;30.85;15.75;;;1.10;99.90;;;;;;5150984;27;20035;-71
2022/03/04 08:26:42;;;;;;;29.15;15.98;;;1.20;99.90;;;;;;5130277;27;20118;-70
2022/03/04 08:29:09;;;;;;;27.35;15.25;;;1.30;99.90;;;;;;5113619;27;20077;-70
2022/03/04 08:31:34;;;;;;;27.98;15.50;;;1.30;99.90;;;;;;5128109;27;20149;-71
2022/03/04 08:34:00;;;;;;;27.52;15.50;;;1.30;99.90;;;;;;5118187;27;20039;-71
2022/03/04 08:36:26;;;;;;;27.90;15.20;;;1.40;99.90;;;;;;5128538;27;20074;-70
2022/03/04 08:38:51;;;;;;;25.27;14.63;;;1.40;99.90;;;;;;5129657;27;20038;-70
2022/03/04 08:41:17;;;;;;;27.30;15.55;;;1.60;99.90;;;;;;5131018;27;20049;-70
2022/03/04 08:43:43;;;;;;;26.40;15.45;;;1.70;99.90;;;;;;5133866;27;20039;-71
2022/03/04 08:46:13;;;;;;;27.20;15.57;;;1.90;99.90;;;;;;5133641;27;20126;-71
2022/03/04 08:48:39;;;;;;;27.25;14.98;;;1.80;99.90;;;;;;5132375;27;20376;-69
2022/03/04 08:51:05;;;;;;;24.45;15.15;;;1.80;99.90;;;;;;5154115;27;20142;-70
2022/03/04 08:53:31;;;;;;;30.30;15.52;;;2.00;99.90;;;;;;5129473;27;20130;-70
2022/03/04 08:55:57;;;;;;;24.15;14.45;;;2.20;99.90;;;;;;5132423;27;20051;-70
2022/03/04 08:58:23;;;;;;;25.88;14.98;;;2.30;99.90;;;;;;5130841;27;20157;-70
2022/03/04 09:00:49;;;;;;;26.83;15.85;;;2.40;99.90;;;;;;5151246;27;20171;-70
2022/03/04 09:03:15;;;;;;;25.77;15.77;;;2.80;99.90;;;;;;5132735;27;20444;-70
2022/03/04 09:05:41;;;;;;;23.65;14.93;;;2.50;99.90;;;;;;5150890;27;20043;-70
2022/03/04 09:08:06;;;;;;;25.23;14.85;;;2.50;99.90;;;;;;5133408;27;20039;-70
2022/03/04 09:10:32;;;;;;;24.35;15.00;;;2.50;99.90;;;;;;5151669;27;20043;-70
2022/03/04 09:12:58;;;;;;;27.38;14.82;;;2.70;99.90;;;;;;5141827;27;20043;-70
2022/03/04 09:15:24;;;;;;;25.08;14.82;;;2.80;99.90;;;;;;5133264;27;20050;-70
2022/03/04 09:17:50;;;;;;;25.42;15.10;;;2.90;99.90;;;;;;5129613;27;20078;-71
2022/03/04 09:20:19;;;;;;;24.83;14.80;;;3.90;99.90;;;;;;5130333;27;20043;-71
2022/03/04 09:22:46;;;;;;;25.65;14.63;;;2.90;99.90;;;;;;5130883;27;20043;-70
2022/03/04 09:25:12;;;;;;;24.60;15.20;;;3.10;99.90;;;;;;5131323;27;20050;-71
2022/03/04 09:27:38;;;;;;;23.38;14.45;;;3.40;99.90;;;;;;5113578;27;20137;-69
2022/03/04 09:30:05;;;;;;;23.73;14.35;;;5.00;99.90;;;;;;5132644;27;20122;-70
2022/03/04 09:32:31;;;;;;;22.30;14.43;;;4.10;99.90;;;;;;5106946;27;20734;-70
2022/03/04 09:34:57;;;;;;;21.45;13.70;;;4.50;99.90;;;;;;5152385;27;20575;-72
2022/03/04 09:37:23;;;;;;;22.02;13.77;;;4.90;99.90;;;;;;5148638;27;20065;-70
2022/03/04 09:39:48;;;;;;;21.40;12.48;;;5.20;99.90;;;;;;5150512;27;20051;-70
2022/03/04 09:42:14;;;;;;;20.88;12.48;;;5.60;99.90;;;;;;5152596;27;20528;-69
2022/03/04 09:44:40;;;;;;;20.52;12.52;;;6.20;99.90;;;;;;5115705;27;20491;-69
2022/03/04 09:47:07;;;;;;;19.92;13.45;;;6.50;99.90;;;;;;5132087;27;20039;-69
2022/03/04 09:49:35;;;;;;;20.90;13.55;;;6.50;99.90;;;;;;5132453;27;20046;-70
2022/03/04 09:52:02;;;;;;;21.10;13.48;;;6.50;99.90;;;;;;5132673;27;20516;-71
2022/03/04 09:54:28;;;;;;;20.15;12.82;;;6.90;99.90;;;;;;5115191;27;20045;-71
2022/03/04 09:56:55;;;;;;;18.35;13.20;;;7.20;99.90;;;;;;5114196;27;20051;-71
2022/03/04 09:59:21;;;;;;;22.50;13.52;;;7.60;99.90;;;;;;5133478;27;20047;-70
2022/03/04 10:01:47;;;;;;;19.73;13.18;;;7.70;99.90;;;;;;5096085;27;20054;-71
2022/03/04 10:04:13;;;;;;;23.75;14.13;;;8.20;99.90;;;;;;5112375;27;20050;-71
2022/03/04 10:06:39;;;;;;;20.33;13.23;;;8.80;99.90;;;;;;5111785;27;20031;-71
2022/03/04 10:09:04;;;;;;;19.20;12.82;;;9.60;99.90;;;;;;5112081;27;20139;-71
2022/03/04 10:11:36;;;;;;;20.10;13.90;;;9.40;99.90;;;;;;5111916;27;20043;-71
2022/03/04 10:14:13;;;;;;;19.10;13.52;;;9.40;99.90;;;;;;5113057;27;20391;-74
2022/03/04 10:16:42;;;;;;;17.23;12.93;;;10.20;99.90;;;;;;5111656;27;20400;-70
2022/03/04 10:19:14;;;;;;;17.40;12.30;;;10.10;99.90;;;;;;5127608;27;20047;-69
2022/03/04 10:21:53;;;;;;;20.08;13.73;;;10.80;99.90;;;;;;5127206;27;20038;-73
2022/03/04 10:24:21;;;;;;;19.33;12.52;;;11.30;99.90;;;;;;5132482;27;20042;-74
2022/03/04 10:26:47;;;;;;;19.25;13.73;;;11.90;99.90;;;;;;5147092;27;20391;-73
2022/03/04 10:29:25;;;;;;;19.67;13.25;;;12.00;99.90;;;;;;5142088;27;20046;-74
2022/03/04 10:32:06;;;;;;;19.10;13.23;;;12.70;99.90;;;;;;5114671;27;20052;-75
2022/03/04 10:34:52;;;;;;;16.73;11.73;;;12.50;99.90;;;;;;5093564;27;20039;-76
2022/03/04 10:37:19;;;;;;;;;;;12.80;99.90;;;;;;5128777;27;20078;-68
2022/03/04 10:40:10;;;;;;;17.20;11.73;;;12.90;99.90;;;;;;5111175;27;20379;-68
2022/03/04 10:42:49;;;;;;;17.33;11.07;;;13.40;99.90;;;;;;5130457;27;20054;-73
2022/03/04 10:45:18;;;;;;;13.48;11.00;;;14.10;99.90;;;;;;5131596;27;20043;-70
2022/03/04 10:47:53;;;;;;;15.00;11.50;;;13.60;99.90;;;;;;5130319;27;20557;-70
2022/03/04 10:50:27;;;;;;;14.87;10.77;;;13.70;99.50;;;;;;5150579;27;20110;-70
2022/03/04 10:53:07;;;;;;;16.67;11.47;;;14.10;99.40;;;;;;5130817;27;20535;-71
2022/03/04 10:55:34;;;;;;;17.50;10.95;;;14.70;97.60;;;;;;5114495;27;20042;-71
2022/03/04 10:58:03;;;;;;;15.00;10.60;;;15.20;94.80;;;;;;5123150;27;20058;-70
2022/03/04 11:00:31;;;;;;;12.38;9.45;;;15.00;94.80;;;;;;5104079;28;20047;-71
2022/03/04 11:02:57;;;;;;;15.32;10.05;;;15.40;94.00;;;;;;5104559;28;20499;-71
2022/03/04 11:05:23;;;;;;;14.13;10.10;;;15.90;92.70;;;;;;5107732;28;20113;-71
2022/03/04 11:07:49;;;;;;;13.95;10.88;;;16.70;92.70;;;;;;5108410;28;20083;-71
2022/03/04 11:10:16;;;;;;;13.68;10.27;;;17.40;92.40;;;;;;5109689;28;20044;-71
2022/03/04 11:12:42;;;;;;;12.45;9.85;;;18.10;86.20;;;;;;5106615;28;20047;-70
2022/03/04 11:15:12;;;;;;;14.95;10.32;;;18.40;84.30;;;;;;5111493;28;20416;-71
2022/03/04 11:17:39;;;;;;;12.75;9.73;;;19.10;74.70;;;;;;5106200;28;20107;-75
2022/03/04 11:20:09;;;;;;;13.20;10.20;;;19.70;69.20;;;;;;5116687;27;20040;-73
2022/03/04 11:22:39;;;;;;;11.20;9.35;;;20.30;68.00;;;;;;5087700;28;20401;-74
2022/03/04 11:25:13;;;;;;;11.95;9.63;;;21.10;66.00;;;;;;5083322;28;20185;-74
2022/03/04 11:27:44;;;;;;;11.55;9.73;;;22.30;59.30;;;;;;5116817;27;20066;-75
2022/03/04 11:30:30;;;;;;;12.68;9.50;;;22.60;55.00;;;;;;5083750;28;20165;-75
2022/03/04 11:33:06;;;;;;;14.45;9.55;;;22.80;53.70;;;;;;5083155;28;20495;-75
2022/03/04 11:35:41;;;;;;;12.52;8.77;;;23.20;52.20;;;;;;5084999;28;20063;-74
2022/03/04 11:38:11;;;;;;;11.80;8.95;;;23.60;50.30;;;;;;5112404;27;20514;-74
2022/03/04 11:40:48;;;;;;;10.90;9.25;;;23.90;48.50;;;;;;5082813;28;20444;-77
2022/03/04 11:43:18;;;;;;;12.63;8.77;;;24.60;47.60;;;;;;5083130;28;20052;-75
2022/03/04 11:45:43;;;;;;;11.02;8.82;;;25.70;46.40;;;;;;5084454;28;20174;-75
2022/03/04 11:48:12;;;;;;;10.57;8.65;;;26.30;45.90;;;;;;5115984;27;20139;-75
2022/03/04 11:50:44;;;;;;;11.90;8.98;;;27.20;44.00;;;;;;5118323;27;20082;-74
2022/03/04 11:53:18;;;;;;;11.45;8.90;;;27.40;43.20;;;;;;5087976;28;20087;-74
2022/03/04 11:56:06;;;;;;;10.68;8.77;;;28.30;42.20;;;;;;5104211;28;20078;-74
2022/03/04 11:59:08;;;;;;;11.48;8.60;;;28.80;41.90;;;;;;5092698;28;20047;-74
2022/03/04 12:01:36;;;;;;;11.90;9.13;;;28.90;41.10;;;;;;5114815;27;20054;-75
2022/03/04 12:04:15;;;;;;;10.77;9.20;;;28.70;40.50;;;;;;5122786;27;20117;-74
2022/03/04 12:06:42;;;;;;;12.82;9.35;;;29.10;40.00;;;;;;5124815;27;20496;-74
2022/03/04 12:09:29;;;;;;;12.10;9.23;;;29.00;39.70;;;;;;5126865;27;20129;-71
2022/03/04 12:12:13;;;;;;;13.07;9.57;;;29.20;39.70;;;;;;5126954;27;20054;-71
2022/03/04 12:14:51;;;;;;;11.90;9.80;;;29.50;39.30;;;;;;5125816;28;20062;-71
2022/03/04 12:17:18;;;;;;;14.48;10.02;;;29.30;38.60;;;;;;5131225;27;20038;-72
2022/03/04 12:19:45;;;;;;;15.80;12.00;;;28.50;38.40;;;;;;5132156;27;20045;-72
2022/03/04 12:22:16;;;;;;;14.18;11.60;;;28.10;38.90;;;;;;5112883;28;20130;-72
2022/03/04 12:24:56;;;;;;;16.77;12.70;;;28.00;39.20;;;;;;5096255;28;20609;-72
2022/03/04 12:27:44;;;;;;;17.08;12.93;;;27.90;38.60;;;;;;5096262;28;20047;-72
2022/03/04 12:30:21;;;;;;;15.15;11.75;;;26.20;39.00;;;;;;5113069;28;20047;-73
2022/03/04 12:32:49;;;;;;;15.05;12.00;;;23.30;40.70;;;;;;5119824;27;20136;-73
2022/03/04 12:35:20;;;;;;;15.93;11.90;;;21.20;43.00;;;;;;5133517;27;20039;-72
2022/03/04 12:37:48;;;;;;;20.00;12.57;;;19.50;45.60;;;;;;5129001;27;20047;-72